sensor_id;sensor_type;location;lat;lon;timestamp;pressure;altitude;pressure_sealevel;temperature;humidity
63715;BME280;49858;48.956;9.076;2022-10-26T00:01:19;98749.66;;;15.37;100.00
63715;BME280;49858;48.956;9.076;2022-10-26T00:03:47;98758.00;;;14.82;100.00
63715;BME280;49858;48.956;9.076;2022-10-26T00:06:16;98760.38;;;14.83;100.00
63715;BME280;49858;48.956;9.076;2022-10-26T00:08:44;98746.59;;;14.94;100.00
63715;BME280;49858;48.956;9.076;2022-10-26T00:11:14;98753.56;;;14.74;100.00
63715;BME280;49858;48.956;9.076;2022-10-26T00:13:43;98760.63;;;14.68;100.00
63715;BME280;49858;48.956;9.076;2022-10-26T00:16:13;98769.41;;;14.73;100.00
63715;BME280;49858;48.956;9.076;2022-10-26T00:18:41;98758.91;;;14.52;100.00
63715;BME280;49858;48.956;9.076;2022-10-26T00:21:09;98761.59;;;14.90;100.00
63715;BME280;49858;48.956;9.076;2022-10-26T00:23:37;98760.06;;;14.92;100.00
63715;BME280;49858;48.956;9.076;2022-10-26T00:26:05;98757.66;;;14.87;100.00
63715;BME280;49858;48.956;9.076;2022-10-26T00:28:34;98760.63;;;15.16;100.00
63715;BME280;49858;48.956;9.076;2022-10-26T00:31:05;98761.47;;;15.27;100.00
63715;BME280;49858;48.956;9.076;2022-10-26T00:33:34;98760.22;;;15.17;100.00
63715;BME280;49858;48.956;9.076;2022-10-26T00:36:02;98767.69;;;15.09;100.00
63715;BME280;49858;48.956;9.076;2022-10-26T00:38:30;98763.75;;;15.11;100.00
63715;BME280;49858;48.956;9.076;2022-10-26T00:40:58;98768.47;;;15.06;100.00
63715;BME280;49858;48.956;9.076;2022-10-26T00:43:37;98763.22;;;15.49;100.00
63715;BME280;49858;48.956;9.076;2022-10-26T00:46:08;98761.59;;;15.45;100.00
63715;BME280;49858;48.956;9.076;2022-10-26T00:48:41;98768.13;;;15.74;100.00
63715;BME280;49858;48.956;9.076;2022-10-26T00:51:14;98764.66;;;16.02;100.00
63715;BME280;49858;48.956;9.076;2022-10-26T00:53:43;98764.31;;;16.18;100.00
63715;BME280;49858;48.956;9.076;2022-10-26T00:56:11;98767.50;;;15.40;100.00
63715;BME280;49858;48.956;9.076;2022-10-26T00:58:41;98768.03;;;15.63;100.00
63715;BME280;49858;48.956;9.076;2022-10-26T01:01:09;98775.50;;;15.55;100.00
63715;BME280;49858;48.956;9.076;2022-10-26T01:03:37;98772.56;;;15.93;100.00
63715;BME280;49858;48.956;9.076;2022-10-26T01:06:06;98768.69;;;16.26;100.00
63715;BME280;49858;48.956;9.076;2022-10-26T01:08:35;98771.44;;;16.22;100.00
63715;BME280;49858;48.956;9.076;2022-10-26T01:11:03;98775.00;;;16.12;100.00
63715;BME280;49858;48.956;9.076;2022-10-26T01:13:32;98769.84;;;16.18;100.00
63715;BME280;49858;48.956;9.076;2022-10-26T01:16:13;98768.56;;;15.83;100.00
63715;BME280;49858;48.956;9.076;2022-10-26T01:18:48;98765.50;;;16.09;100.00
63715;BME280;49858;48.956;9.076;2022-10-26T01:21:39;98759.97;;;15.37;100.00
63715;BME280;49858;48.956;9.076;2022-10-26T01:24:21;98763.94;;;15.39;100.00
63715;BME280;49858;48.956;9.076;2022-10-26T01:27:10;98748.81;;;15.26;100.00
63715;BME280;49858;48.956;9.076;2022-10-26T01:30:15;98749.09;;;15.06;100.00
63715;BME280;49858;48.956;9.076;2022-10-26T01:32:46;98743.97;;;15.12;100.00
63715;BME280;49858;48.956;9.076;2022-10-26T01:35:21;98736.84;;;15.11;100.00
63715;BME280;49858;48.956;9.076;2022-10-26T01:38:09;98735.44;;;14.83;100.00
63715;BME280;49858;48.956;9.076;2022-10-26T01:40:42;98734.88;;;15.12;100.00
63715;BME280;49858;48.956;9.076;2022-10-26T01:43:12;98727.38;;;15.16;100.00
63715;BME280;49858;48.956;9.076;2022-10-26T01:45:45;98729.16;;;14.90;100.00
63715;BME280;49858;48.956;9.076;2022-10-26T01:48:16;98730.59;;;14.70;100.00
63715;BME280;49858;48.956;9.076;2022-10-26T01:50:46;98728.59;;;13.92;100.00
63715;BME280;49858;48.956;9.076;2022-10-26T01:53:17;98726.66;;;13.93;100.00
63715;BME280;49858;48.956;9.076;2022-10-26T01:55:48;98733.00;;;13.97;100.00
63715;BME280;49858;48.956;9.076;2022-10-26T02:01:30;98723.88;;;14.30;100.00
63715;BME280;49858;48.956;9.076;2022-10-26T02:04:08;98718.38;;;13.96;100.00
63715;BME280;49858;48.956;9.076;2022-10-26T02:06:45;98722.72;;;13.94;100.00
63715;BME280;49858;48.956;9.076;2022-10-26T02:09:22;98729.72;;;13.88;100.00
63715;BME280;49858;48.956;9.076;2022-10-26T02:11:55;98715.00;;;14.14;100.00
63715;BME280;49858;48.956;9.076;2022-10-26T02:14:29;98710.84;;;14.30;100.00
63715;BME280;49858;48.956;9.076;2022-10-26T02:17:05;98705.13;;;14.53;100.00
63715;BME280;49858;48.956;9.076;2022-10-26T02:19:37;98711.56;;;14.65;100.00
63715;BME280;49858;48.956;9.076;2022-10-26T02:22:12;98718.97;;;15.01;100.00
63715;BME280;49858;48.956;9.076;2022-10-26T02:24:41;98728.53;;;14.60;100.00
63715;BME280;49858;48.956;9.076;2022-10-26T02:27:14;98721.75;;;15.01;100.00
63715;BME280;49858;48.956;9.076;2022-10-26T02:29:43;98725.91;;;15.36;100.00
63715;BME280;49858;48.956;9.076;2022-10-26T02:32:12;98727.13;;;15.42;100.00
63715;BME280;49858;48.956;9.076;2022-10-26T02:34:44;98716.09;;;14.87;100.00
63715;BME280;49858;48.956;9.076;2022-10-26T02:37:15;98728.53;;;14.60;100.00
63715;BME280;49858;48.956;9.076;2022-10-26T02:39:46;98751.09;;;14.62;100.00
63715;BME280;49858;48.956;9.076;2022-10-26T02:42:17;98762.94;;;14.25;100.00
63715;BME280;49858;48.956;9.076;2022-10-26T02:44:48;98768.72;;;14.09;100.00
63715;BME280;49858;48.956;9.076;2022-10-26T02:47:19;98764.75;;;14.47;100.00
63715;BME280;49858;48.956;9.076;2022-10-26T02:49:47;98769.56;;;14.50;100.00
63715;BME280;49858;48.956;9.076;2022-10-26T02:52:20;98746.44;;;15.28;100.00
63715;BME280;49858;48.956;9.076;2022-10-26T02:54:53;98740.25;;;15.56;100.00
63715;BME280;49858;48.956;9.076;2022-10-26T02:57:25;98750.97;;;15.57;100.00
63715;BME280;49858;48.956;9.076;2022-10-26T02:59:56;98745.03;;;15.59;100.00
63715;BME280;49858;48.956;9.076;2022-10-26T03:02:26;98732.94;;;15.23;100.00
63715;BME280;49858;48.956;9.076;2022-10-26T03:04:56;98746.59;;;14.94;100.00
63715;BME280;49858;48.956;9.076;2022-10-26T03:07:32;98756.03;;;15.41;100.00
63715;BME280;49858;48.956;9.076;2022-10-26T03:09:59;98749.75;;;15.51;100.00
63715;BME280;49858;48.956;9.076;2022-10-26T03:12:27;98745.00;;;15.55;100.00
63715;BME280;49858;48.956;9.076;2022-10-26T03:14:55;98755.13;;;15.23;100.00
63715;BME280;49858;48.956;9.076;2022-10-26T03:17:22;98752.84;;;15.39;100.00
63715;BME280;49858;48.956;9.076;2022-10-26T03:19:51;98751.31;;;15.45;100.00
63715;BME280;49858;48.956;9.076;2022-10-26T03:22:20;98747.75;;;15.52;100.00
63715;BME280;49858;48.956;9.076;2022-10-26T03:24:47;98759.06;;;15.22;100.00
63715;BME280;49858;48.956;9.076;2022-10-26T03:27:15;98769.25;;;15.07;100.00
63715;BME280;49858;48.956;9.076;2022-10-26T03:29:43;98770.84;;;14.60;100.00
63715;BME280;49858;48.956;9.076;2022-10-26T03:32:11;98762.28;;;14.76;100.00
63715;BME280;49858;48.956;9.076;2022-10-26T03:34:38;98773.25;;;14.28;100.00
63715;BME280;49858;48.956;9.076;2022-10-26T03:37:07;98768.44;;;14.55;100.00
63715;BME280;49858;48.956;9.076;2022-10-26T03:39:37;98768.78;;;14.98;100.00
63715;BME280;49858;48.956;9.076;2022-10-26T03:42:04;98763.41;;;15.16;100.00
63715;BME280;49858;48.956;9.076;2022-10-26T03:44:32;98762.88;;;14.99;100.00
63715;BME280;49858;48.956;9.076;2022-10-26T03:47:00;98765.84;;;14.76;100.00
63715;BME280;49858;48.956;9.076;2022-10-26T03:49:27;98765.03;;;14.76;100.00
63715;BME280;49858;48.956;9.076;2022-10-26T03:51:55;98779.63;;;14.69;100.00
63715;BME280;49858;48.956;9.076;2022-10-26T03:54:24;98768.88;;;15.08;100.00
63715;BME280;49858;48.956;9.076;2022-10-26T03:56:52;98767.53;;;14.88;100.00
63715;BME280;49858;48.956;9.076;2022-10-26T03:59:20;98758.03;;;14.89;100.00
63715;BME280;49858;48.956;9.076;2022-10-26T04:01:48;98748.50;;;14.87;100.00
63715;BME280;49858;48.956;9.076;2022-10-26T04:04:22;98757.72;;;14.98;100.00
63715;BME280;49858;48.956;9.076;2022-10-26T04:06:50;98763.78;;;15.18;100.00
63715;BME280;49858;48.956;9.076;2022-10-26T04:09:18;98751.75;;;14.92;100.00
63715;BME280;49858;48.956;9.076;2022-10-26T04:11:47;98770.19;;;14.74;100.00
63715;BME280;49858;48.956;9.076;2022-10-26T04:14:14;98765.28;;;14.56;100.00
63715;BME280;49858;48.956;9.076;2022-10-26T04:16:42;98771.25;;;14.59;100.00
63715;BME280;49858;48.956;9.076;2022-10-26T04:19:10;98763.41;;;13.97;100.00
63715;BME280;49858;48.956;9.076;2022-10-26T04:21:38;98756.66;;;14.28;100.00
63715;BME280;49858;48.956;9.076;2022-10-26T04:24:05;98756.91;;;14.49;100.00
63715;BME280;49858;48.956;9.076;2022-10-26T04:26:33;98759.97;;;14.44;100.00
63715;BME280;49858;48.956;9.076;2022-10-26T04:29:02;98751.31;;;14.46;100.00
63715;BME280;49858;48.956;9.076;2022-10-26T04:31:32;98741.53;;;14.55;100.00
63715;BME280;49858;48.956;9.076;2022-10-26T04:34:00;98750.41;;;14.35;100.00
63715;BME280;49858;48.956;9.076;2022-10-26T04:36:29;98754.09;;;14.09;100.00
63715;BME280;49858;48.956;9.076;2022-10-26T04:38:56;98746.03;;;13.96;100.00
63715;BME280;49858;48.956;9.076;2022-10-26T04:41:24;98746.63;;;13.79;100.00
63715;BME280;49858;48.956;9.076;2022-10-26T04:43:52;98743.16;;;14.23;100.00
63715;BME280;49858;48.956;9.076;2022-10-26T04:46:21;98742.00;;;14.24;100.00
63715;BME280;49858;48.956;9.076;2022-10-26T04:48:48;98736.75;;;14.52;100.00
63715;BME280;49858;48.956;9.076;2022-10-26T04:51:16;98733.72;;;14.65;100.00
63715;BME280;49858;48.956;9.076;2022-10-26T04:53:44;98752.03;;;14.39;100.00
63715;BME280;49858;48.956;9.076;2022-10-26T04:56:11;98748.78;;;13.93;100.00
63715;BME280;49858;48.956;9.076;2022-10-26T04:58:39;98749.53;;;14.27;100.00
63715;BME280;49858;48.956;9.076;2022-10-26T05:01:07;98753.59;;;14.37;100.00
63715;BME280;49858;48.956;9.076;2022-10-26T05:03:36;98760.09;;;14.51;100.00
63715;BME280;49858;48.956;9.076;2022-10-26T05:06:04;98744.56;;;14.43;100.00
63715;BME280;49858;48.956;9.076;2022-10-26T05:08:32;98745.53;;;14.62;100.00
63715;BME280;49858;48.956;9.076;2022-10-26T05:10:59;98748.25;;;14.54;100.00
63715;BME280;49858;48.956;9.076;2022-10-26T05:13:27;98752.22;;;14.57;100.00
63715;BME280;49858;48.956;9.076;2022-10-26T05:15:55;98761.66;;;14.52;100.00
63715;BME280;49858;48.956;9.076;2022-10-26T05:18:22;98762.59;;;14.30;100.00
63715;BME280;49858;48.956;9.076;2022-10-26T05:20:53;98763.41;;;14.30;100.00
63715;BME280;49858;48.956;9.076;2022-10-26T05:23:21;98744.56;;;14.43;100.00
63715;BME280;49858;48.956;9.076;2022-10-26T05:25:49;98748.81;;;14.33;100.00
63715;BME280;49858;48.956;9.076;2022-10-26T05:28:17;98758.19;;;14.22;100.00
63715;BME280;49858;48.956;9.076;2022-10-26T05:30:45;98767.00;;;14.35;100.00
63715;BME280;49858;48.956;9.076;2022-10-26T05:33:13;98765.22;;;14.53;100.00
63715;BME280;49858;48.956;9.076;2022-10-26T05:35:41;98767.66;;;14.58;100.00
63715;BME280;49858;48.956;9.076;2022-10-26T05:38:12;98774.41;;;14.61;100.00
63715;BME280;49858;48.956;9.076;2022-10-26T05:40:46;98769.84;;;14.79;100.00
63715;BME280;49858;48.956;9.076;2022-10-26T05:43:14;98782.13;;;14.85;100.00
63715;BME280;49858;48.956;9.076;2022-10-26T05:45:41;98794.59;;;14.61;100.00
63715;BME280;49858;48.956;9.076;2022-10-26T05:48:09;98793.38;;;14.59;100.00
63715;BME280;49858;48.956;9.076;2022-10-26T05:50:37;98791.47;;;14.66;100.00
63715;BME280;49858;48.956;9.076;2022-10-26T05:53:05;98786.22;;;14.54;100.00
63715;BME280;49858;48.956;9.076;2022-10-26T05:55:35;98803.31;;;14.29;100.00
63715;BME280;49858;48.956;9.076;2022-10-26T05:58:04;98799.59;;;14.15;100.00
63715;BME280;49858;48.956;9.076;2022-10-26T06:00:37;98793.53;;;13.72;100.00
63715;BME280;49858;48.956;9.076;2022-10-26T06:03:15;98805.19;;;14.18;100.00
63715;BME280;49858;48.956;9.076;2022-10-26T06:05:51;98808.34;;;14.20;100.00
63715;BME280;49858;48.956;9.076;2022-10-26T06:08:21;98812.09;;;14.35;100.00
63715;BME280;49858;48.956;9.076;2022-10-26T06:10:51;98816.00;;;14.68;100.00
63715;BME280;49858;48.956;9.076;2022-10-26T06:13:20;98816.59;;;14.91;100.00
63715;BME280;49858;48.956;9.076;2022-10-26T06:16:05;98827.53;;;15.18;100.00
63715;BME280;49858;48.956;9.076;2022-10-26T06:18:42;98837.03;;;15.17;100.00
63715;BME280;49858;48.956;9.076;2022-10-26T06:21:22;98848.44;;;14.67;100.00
63715;BME280;49858;48.956;9.076;2022-10-26T06:23:56;98843.00;;;14.78;100.00
63715;BME280;49858;48.956;9.076;2022-10-26T06:26:35;98854.66;;;14.98;100.00
63715;BME280;49858;48.956;9.076;2022-10-26T06:29:16;98851.41;;;14.89;100.00
63715;BME280;49858;48.956;9.076;2022-10-26T06:31:47;98864.31;;;15.15;100.00
63715;BME280;49858;48.956;9.076;2022-10-26T06:34:21;98867.34;;;14.99;100.00
63715;BME280;49858;48.956;9.076;2022-10-26T06:36:51;98867.06;;;15.15;100.00
63715;BME280;49858;48.956;9.076;2022-10-26T06:39:26;98864.81;;;14.83;100.00
63715;BME280;49858;48.956;9.076;2022-10-26T06:41:58;98869.13;;;14.80;100.00
63715;BME280;49858;48.956;9.076;2022-10-26T06:44:28;98860.03;;;14.46;100.00
63715;BME280;49858;48.956;9.076;2022-10-26T06:47:02;98877.31;;;14.36;100.00
63715;BME280;49858;48.956;9.076;2022-10-26T06:49:35;98866.38;;;14.47;100.00
63715;BME280;49858;48.956;9.076;2022-10-26T06:52:11;98883.84;;;14.88;100.00
63715;BME280;49858;48.956;9.076;2022-10-26T06:54:46;98881.97;;;14.99;100.00
63715;BME280;49858;48.956;9.076;2022-10-26T06:57:18;98885.31;;;15.19;100.00
63715;BME280;49858;48.956;9.076;2022-10-26T06:59:49;98883.22;;;15.02;100.00
63715;BME280;49858;48.956;9.076;2022-10-26T07:02:17;98877.41;;;14.77;100.00
63715;BME280;49858;48.956;9.076;2022-10-26T07:04:45;98870.97;;;14.66;100.00
63715;BME280;49858;48.956;9.076;2022-10-26T07:07:15;98861.41;;;14.60;100.00
63715;BME280;49858;48.956;9.076;2022-10-26T07:09:43;98880.78;;;14.60;100.00
63715;BME280;49858;48.956;9.076;2022-10-26T07:12:11;98885.72;;;14.77;100.00
63715;BME280;49858;48.956;9.076;2022-10-26T07:14:40;98892.22;;;14.92;100.00
63715;BME280;49858;48.956;9.076;2022-10-26T07:17:09;98889.09;;;15.00;100.00
63715;BME280;49858;48.956;9.076;2022-10-26T07:19:36;98896.34;;;15.12;100.00
63715;BME280;49858;48.956;9.076;2022-10-26T07:22:05;98898.69;;;15.10;100.00
63715;BME280;49858;48.956;9.076;2022-10-26T07:24:33;98910.31;;;15.23;100.00
63715;BME280;49858;48.956;9.076;2022-10-26T07:27:01;98910.16;;;15.08;100.00
63715;BME280;49858;48.956;9.076;2022-10-26T07:29:29;98911.34;;;15.07;100.00
63715;BME280;49858;48.956;9.076;2022-10-26T07:31:58;98902.91;;;15.34;100.00
63715;BME280;49858;48.956;9.076;2022-10-26T07:34:26;98906.56;;;15.49;100.00
63715;BME280;49858;48.956;9.076;2022-10-26T07:36:53;98895.59;;;15.19;100.00
63715;BME280;49858;48.956;9.076;2022-10-26T07:39:21;98909.31;;;15.45;100.00
63715;BME280;49858;48.956;9.076;2022-10-26T07:41:49;98904.34;;;15.65;100.00
63715;BME280;49858;48.956;9.076;2022-10-26T07:44:17;98902.38;;;15.69;100.00
63715;BME280;49858;48.956;9.076;2022-10-26T07:46:44;98908.50;;;15.96;100.00
63715;BME280;49858;48.956;9.076;2022-10-26T07:49:13;98913.81;;;16.19;100.00
63715;BME280;49858;48.956;9.076;2022-10-26T07:51:45;98926.38;;;16.02;100.00
63715;BME280;49858;48.956;9.076;2022-10-26T07:54:12;98925.97;;;16.04;100.00
63715;BME280;49858;48.956;9.076;2022-10-26T07:56:40;98917.28;;;16.09;100.00
63715;BME280;49858;48.956;9.076;2022-10-26T07:59:10;98934.47;;;15.67;100.00
63715;BME280;49858;48.956;9.076;2022-10-26T08:01:38;98926.66;;;15.83;100.00
63715;BME280;49858;48.956;9.076;2022-10-26T08:04:05;98936.25;;;15.96;100.00
63715;BME280;49858;48.956;9.076;2022-10-26T08:06:34;98933.16;;;16.05;100.00
63715;BME280;49858;48.956;9.076;2022-10-26T08:09:02;98930.03;;;16.17;100.00
63715;BME280;49858;48.956;9.076;2022-10-26T08:11:30;98938.84;;;16.30;100.00
63715;BME280;49858;48.956;9.076;2022-10-26T08:13:58;98939.84;;;16.04;100.00
63715;BME280;49858;48.956;9.076;2022-10-26T08:16:26;98930.03;;;16.17;100.00
63715;BME280;49858;48.956;9.076;2022-10-26T08:18:53;98934.59;;;15.84;100.00
63715;BME280;49858;48.956;9.076;2022-10-26T08:21:21;98940.94;;;15.89;100.00
63715;BME280;49858;48.956;9.076;2022-10-26T08:24:07;98939.94;;;16.15;100.00
63715;BME280;49858;48.956;9.076;2022-10-26T08:26:35;98942.78;;;16.25;100.00
63715;BME280;49858;48.956;9.076;2022-10-26T08:29:03;98948.00;;;16.41;100.00
63715;BME280;49858;48.956;9.076;2022-10-26T08:31:30;98941.44;;;16.01;100.00
63715;BME280;49858;48.956;9.076;2022-10-26T08:33:58;98942.91;;;16.47;100.00
63715;BME280;49858;48.956;9.076;2022-10-26T08:36:27;98945.81;;;16.79;100.00
63715;BME280;49858;48.956;9.076;2022-10-26T08:38:55;98938.25;;;16.79;100.00
63715;BME280;49858;48.956;9.076;2022-10-26T08:41:34;98930.41;;;16.99;100.00
63715;BME280;49858;48.956;9.076;2022-10-26T08:44:09;98943.06;;;16.86;100.00
63715;BME280;49858;48.956;9.076;2022-10-26T08:46:43;98948.69;;;17.15;100.00
63715;BME280;49858;48.956;9.076;2022-10-26T08:49:18;98947.94;;;17.32;100.00
63715;BME280;49858;48.956;9.076;2022-10-26T08:51:49;98956.59;;;17.05;100.00
63715;BME280;49858;48.956;9.076;2022-10-26T08:54:23;98953.84;;;17.16;100.00
63715;BME280;49858;48.956;9.076;2022-10-26T08:56:57;98958.16;;;17.03;100.00
63715;BME280;49858;48.956;9.076;2022-10-26T08:59:30;98966.16;;;17.26;100.00
63715;BME280;49858;48.956;9.076;2022-10-26T09:02:01;98960.25;;;17.67;100.00
63715;BME280;49858;48.956;9.076;2022-10-26T09:04:30;98960.28;;;17.84;100.00
63715;BME280;49858;48.956;9.076;2022-10-26T09:07:05;98966.22;;;18.08;100.00
63715;BME280;49858;48.956;9.076;2022-10-26T09:09:42;98972.47;;;18.48;100.00
63715;BME280;49858;48.956;9.076;2022-10-26T09:12:20;98971.72;;;18.29;100.00
63715;BME280;49858;48.956;9.076;2022-10-26T09:14:59;98970.59;;;18.12;100.00
63715;BME280;49858;48.956;9.076;2022-10-26T09:17:38;98975.00;;;17.85;100.00
63715;BME280;49858;48.956;9.076;2022-10-26T09:20:19;98973.38;;;18.16;100.00
63715;BME280;49858;48.956;9.076;2022-10-26T09:22:59;98979.19;;;18.68;100.00
63715;BME280;49858;48.956;9.076;2022-10-26T09:25:37;98981.63;;;18.52;100.00
63715;BME280;49858;48.956;9.076;2022-10-26T09:28:13;98982.75;;;18.83;100.00
63715;BME280;49858;48.956;9.076;2022-10-26T09:30:43;98997.69;;;19.21;100.00
63715;BME280;49858;48.956;9.076;2022-10-26T09:33:13;98997.19;;;19.33;100.00
63715;BME280;49858;48.956;9.076;2022-10-26T09:35:43;98998.28;;;19.54;100.00
63715;BME280;49858;48.956;9.076;2022-10-26T09:38:15;99003.75;;;20.61;100.00
63715;BME280;49858;48.956;9.076;2022-10-26T09:40:48;99007.69;;;20.23;100.00
63715;BME280;49858;48.956;9.076;2022-10-26T09:43:25;99002.28;;;21.14;100.00
63715;BME280;49858;48.956;9.076;2022-10-26T09:45:55;98999.28;;;21.29;100.00
63715;BME280;49858;48.956;9.076;2022-10-26T09:48:28;98995.66;;;22.33;100.00
63715;BME280;49858;48.956;9.076;2022-10-26T09:50:59;98987.63;;;22.35;100.00
63715;BME280;49858;48.956;9.076;2022-10-26T09:53:30;99002.13;;;22.93;100.00
63715;BME280;49858;48.956;9.076;2022-10-26T09:56:05;98993.09;;;22.42;100.00
63715;BME280;49858;48.956;9.076;2022-10-26T09:58:40;98988.25;;;22.23;100.00
63715;BME280;49858;48.956;9.076;2022-10-26T10:01:20;98993.69;;;22.06;100.00
63715;BME280;49858;48.956;9.076;2022-10-26T10:04:08;98989.22;;;22.76;100.00
63715;BME280;49858;48.956;9.076;2022-10-26T10:06:36;98998.00;;;22.14;100.00
63715;BME280;49858;48.956;9.076;2022-10-26T10:09:06;98993.25;;;22.35;100.00
63715;BME280;49858;48.956;9.076;2022-10-26T10:11:40;98995.13;;;21.67;100.00
63715;BME280;49858;48.956;9.076;2022-10-26T10:14:15;99005.69;;;22.54;100.00
63715;BME280;49858;48.956;9.076;2022-10-26T10:16:52;99001.09;;;21.46;100.00
63715;BME280;49858;48.956;9.076;2022-10-26T10:19:23;99012.59;;;22.02;100.00
63715;BME280;49858;48.956;9.076;2022-10-26T10:21:54;99008.44;;;24.35;100.00
63715;BME280;49858;48.956;9.076;2022-10-26T10:24:25;99013.56;;;25.78;100.00
63715;BME280;49858;48.956;9.076;2022-10-26T10:27:01;99013.09;;;25.41;100.00
63715;BME280;49858;48.956;9.076;2022-10-26T10:29:31;99015.66;;;24.03;100.00
63715;BME280;49858;48.956;9.076;2022-10-26T10:32:01;99017.88;;;22.43;100.00
63715;BME280;49858;48.956;9.076;2022-10-26T10:34:30;99035.66;;;20.98;100.00
63715;BME280;49858;48.956;9.076;2022-10-26T10:36:59;99021.66;;;21.59;100.00
63715;BME280;49858;48.956;9.076;2022-10-26T10:39:35;99018.97;;;25.05;100.00
63715;BME280;49858;48.956;9.076;2022-10-26T10:42:10;99026.16;;;26.12;96.79
63715;BME280;49858;48.956;9.076;2022-10-26T10:44:42;99023.59;;;26.39;92.33
63715;BME280;49858;48.956;9.076;2022-10-26T10:47:18;99032.81;;;23.56;100.00
63715;BME280;49858;48.956;9.076;2022-10-26T10:49:56;99026.94;;;25.36;100.00
63715;BME280;49858;48.956;9.076;2022-10-26T10:52:28;99033.75;;;24.80;100.00
63715;BME280;49858;48.956;9.076;2022-10-26T10:55:15;99025.94;;;26.54;93.17
63715;BME280;49858;48.956;9.076;2022-10-26T10:57:53;99022.56;;;26.11;95.90
63715;BME280;49858;48.956;9.076;2022-10-26T11:00:27;99028.88;;;25.77;96.79
63715;BME280;49858;48.956;9.076;2022-10-26T11:03:10;99042.22;;;24.93;100.00
63715;BME280;49858;48.956;9.076;2022-10-26T11:06:00;99028.19;;;22.03;100.00
63715;BME280;49858;48.956;9.076;2022-10-26T11:08:34;99038.28;;;22.44;100.00
63715;BME280;49858;48.956;9.076;2022-10-26T11:11:05;99045.31;;;21.55;100.00
63715;BME280;49858;48.956;9.076;2022-10-26T11:13:37;99060.25;;;20.80;100.00
63715;BME280;49858;48.956;9.076;2022-10-26T11:16:11;99061.13;;;20.70;100.00
63715;BME280;49858;48.956;9.076;2022-10-26T11:18:42;99053.19;;;20.68;100.00
63715;BME280;49858;48.956;9.076;2022-10-26T11:21:19;99043.19;;;20.71;100.00
63715;BME280;49858;48.956;9.076;2022-10-26T11:23:51;99052.88;;;20.59;100.00
63715;BME280;49858;48.956;9.076;2022-10-26T11:26:24;99052.69;;;20.32;100.00
63715;BME280;49858;48.956;9.076;2022-10-26T11:28:56;99057.72;;;20.55;100.00
63715;BME280;49858;48.956;9.076;2022-10-26T11:31:31;99052.22;;;21.16;100.00
63715;BME280;49858;48.956;9.076;2022-10-26T11:34:12;99054.13;;;21.23;100.00
63715;BME280;49858;48.956;9.076;2022-10-26T11:36:45;99050.78;;;21.35;100.00
63715;BME280;49858;48.956;9.076;2022-10-26T11:39:19;99057.84;;;20.78;100.00
63715;BME280;49858;48.956;9.076;2022-10-26T11:41:55;99052.00;;;21.34;100.00
63715;BME280;49858;48.956;9.076;2022-10-26T11:44:29;99054.84;;;20.62;100.00
63715;BME280;49858;48.956;9.076;2022-10-26T11:47:03;99058.16;;;20.46;100.00
63715;BME280;49858;48.956;9.076;2022-10-26T11:49:38;99059.34;;;20.90;100.00
63715;BME280;49858;48.956;9.076;2022-10-26T11:52:12;99067.63;;;20.59;100.00
63715;BME280;49858;48.956;9.076;2022-10-26T11:54:45;99066.44;;;20.60;100.00
63715;BME280;49858;48.956;9.076;2022-10-26T11:57:15;99068.13;;;20.51;100.00
63715;BME280;49858;48.956;9.076;2022-10-26T11:59:47;99073.94;;;20.71;100.00
63715;BME280;49858;48.956;9.076;2022-10-26T12:02:19;99070.06;;;20.57;100.00
63715;BME280;49858;48.956;9.076;2022-10-26T12:04:51;99071.06;;;20.33;100.00
63715;BME280;49858;48.956;9.076;2022-10-26T12:07:24;99076.13;;;20.49;100.00
63715;BME280;49858;48.956;9.076;2022-10-26T12:09:53;99076.91;;;20.53;100.00
63715;BME280;49858;48.956;9.076;2022-10-26T12:12:27;99071.28;;;20.56;100.00
63715;BME280;49858;48.956;9.076;2022-10-26T12:15:13;99071.94;;;21.05;100.00
63715;BME280;49858;48.956;9.076;2022-10-26T12:17:49;99068.38;;;21.66;100.00
63715;BME280;49858;48.956;9.076;2022-10-26T12:20:41;99078.38;;;21.63;100.00
63715;BME280;49858;48.956;9.076;2022-10-26T12:23:16;99073.00;;;21.49;100.00
63715;BME280;49858;48.956;9.076;2022-10-26T12:29:25;99071.31;;;20.53;100.00
63715;BME280;49858;48.956;9.076;2022-10-26T12:31:53;99081.91;;;20.72;100.00
63715;BME280;49858;48.956;9.076;2022-10-26T12:34:24;99085.72;;;20.89;100.00
63715;BME280;49858;48.956;9.076;2022-10-26T12:37:22;99087.66;;;21.26;100.00
63715;BME280;49858;48.956;9.076;2022-10-26T12:42:28;99080.50;;;20.53;100.00
63715;BME280;49858;48.956;9.076;2022-10-26T12:45:19;99079.22;;;20.61;100.00
63715;BME280;49858;48.956;9.076;2022-10-26T12:48:00;99073.06;;;20.77;100.00
63715;BME280;49858;48.956;9.076;2022-10-26T12:50:47;99087.38;;;21.17;100.00
63715;BME280;49858;48.956;9.076;2022-10-26T12:53:16;99085.88;;;21.09;100.00
63715;BME280;49858;48.956;9.076;2022-10-26T12:56:03;99092.50;;;21.56;100.00
63715;BME280;49858;48.956;9.076;2022-10-26T12:58:53;99097.84;;;21.43;100.00
63715;BME280;49858;48.956;9.076;2022-10-26T13:01:49;99101.84;;;22.00;100.00
63715;BME280;49858;48.956;9.076;2022-10-26T13:04:28;99093.06;;;22.49;100.00
63715;BME280;49858;48.956;9.076;2022-10-26T13:07:16;99097.38;;;22.77;100.00
63715;BME280;49858;48.956;9.076;2022-10-26T13:09:55;99101.38;;;23.19;100.00
63715;BME280;49858;48.956;9.076;2022-10-26T13:12:24;99092.03;;;23.65;97.13
63715;BME280;49858;48.956;9.076;2022-10-26T13:15:01;99097.41;;;23.56;94.76
63715;BME280;49858;48.956;9.076;2022-10-26T13:17:31;99098.22;;;23.93;93.88
63715;BME280;49858;48.956;9.076;2022-10-26T13:20:06;99101.84;;;22.98;100.00
63715;BME280;49858;48.956;9.076;2022-10-26T13:22:44;99098.88;;;23.64;95.17
63715;BME280;49858;48.956;9.076;2022-10-26T13:25:21;99099.47;;;23.16;100.00